Terminal Aerodrome Forecast
Issued by NWS Green Bay, WI

Home | Current Version | Previous Version | Text Only | Print | Product List | Glossary On
Versions: 1 2 3 4 5 6 7 8 9 10 11 12 13 14 15 16 17 18 19 20 21 22 23 24 25 26 27 28 29 30 31 32
357
FTUS43 KGRB 081720
TAFGRB
TAF
KGRB 081720Z 0818/0918 30015G21KT P6SM SCT024 SCT050
      TEMPO 0818/0821 -SHSN BKN022 BKN050
     FM082100 30012G21KT P6SM -SHSN BKN028 BKN050
     FM090000 30010G15KT P6SM BKN030 BKN040
     FM090400 29009KT P6SM SCT030 BKN040=

USA.gov is the U.S. government's official web portal to all federal, state and local government web resources and services.